createdAt,value
2018-12-23T00:00:29.097Z,3.40
2018-12-23T00:02:57.582Z,3.80
2018-12-23T00:05:25.898Z,3.20
2018-12-23T00:07:53.502Z,3.00
2018-12-23T00:10:21.665Z,3.00
2018-12-23T00:12:49.695Z,4.00
2018-12-23T00:15:17.368Z,4.00
2018-12-23T00:17:45.851Z,3.00
2018-12-23T00:20:13.815Z,0.60
2018-12-23T00:22:41.426Z,4.00
2018-12-23T00:25:09.066Z,3.20
2018-12-23T00:27:36.966Z,4.00
2018-12-23T00:30:04.599Z,3.20
2018-12-23T00:32:32.189Z,3.40
2018-12-23T00:35:00.153Z,3.60
2018-12-23T00:37:27.837Z,1.00
2018-12-23T00:39:55.439Z,4.00
2018-12-23T00:42:24.238Z,4.40
2018-12-23T00:44:51.897Z,2.60
2018-12-23T00:47:19.555Z,3.60
2018-12-23T00:49:47.466Z,4.80
2018-12-23T00:52:15.118Z,4.00
2018-12-23T00:54:43.307Z,4.80
2018-12-23T00:57:11.253Z,4.00
2018-12-23T00:59:39.828Z,4.00
2018-12-23T01:02:07.460Z,4.20
2018-12-23T01:04:35.432Z,4.00
2018-12-23T01:07:03.119Z,6.00
2018-12-23T01:09:30.783Z,3.00
2018-12-23T01:11:58.665Z,4.00
2018-12-23T01:14:26.290Z,5.20
2018-12-23T01:16:53.932Z,5.60
2018-12-23T01:19:21.825Z,4.40
2018-12-23T01:21:49.419Z,4.00
2018-12-23T01:24:17.057Z,6.20
2018-12-23T01:26:44.979Z,6.20
2018-12-23T01:29:13.896Z,5.20
2018-12-23T01:31:41.588Z,4.40
2018-12-23T01:34:09.550Z,6.60
2018-12-23T01:36:37.205Z,3.80
2018-12-23T01:39:06.078Z,4.00
2018-12-23T01:41:33.982Z,6.20
2018-12-23T01:44:01.679Z,6.60
2018-12-23T01:46:29.291Z,5.20
2018-12-23T01:48:57.280Z,4.00
2018-12-23T01:51:24.930Z,6.20
2018-12-23T01:53:52.559Z,4.40
2018-12-23T01:56:20.498Z,6.80
2018-12-23T01:58:48.143Z,9.00
2018-12-23T02:01:15.775Z,3.80
2018-12-23T02:03:43.736Z,6.00
2018-12-23T02:06:13.370Z,7.00
2018-12-23T02:08:41.026Z,5.80
2018-12-23T02:11:08.956Z,0.00
2018-12-23T02:13:36.577Z,6.40
2018-12-23T02:16:04.219Z,7.20
2018-12-23T02:18:33.270Z,4.00
2018-12-23T02:21:00.932Z,6.00
2018-12-23T02:23:28.597Z,3.60
2018-12-23T02:25:56.258Z,6.00
2018-12-23T02:28:23.958Z,6.00
2018-12-23T02:30:51.830Z,5.20
2018-12-23T02:33:19.452Z,6.00
2018-12-23T02:35:55.257Z,5.20
2018-12-23T02:38:16.834Z,6.00
2018-12-23T02:40:44.707Z,3.00
2018-12-23T02:43:12.353Z,9.20
2018-12-23T02:45:40.003Z,6.40
2018-12-23T02:48:07.667Z,4.80
2018-12-23T02:50:35.645Z,6.20
2018-12-23T02:53:03.406Z,8.60
2018-12-23T02:55:34.002Z,4.00
2018-12-23T02:58:01.799Z,9.00
2018-12-23T03:00:32.762Z,3.00
2018-12-23T03:03:00.393Z,7.80
2018-12-23T03:05:28.027Z,4.00
2018-12-23T03:07:55.967Z,7.00
2018-12-23T03:10:23.601Z,9.80
2018-12-23T03:12:51.449Z,9.00
2018-12-23T03:15:19.287Z,6.20
2018-12-23T03:17:47.586Z,9.20
2018-12-23T03:20:15.298Z,9.00
2018-12-23T03:22:42.973Z,7.80
2018-12-23T03:25:10.599Z,6.80
2018-12-23T03:27:38.546Z,6.00
2018-12-23T03:30:09.846Z,7.20
2018-12-23T03:32:37.485Z,6.40
2018-12-23T03:35:05.362Z,6.20
2018-12-23T03:37:32.965Z,9.00
2018-12-23T03:40:00.616Z,4.40
2018-12-23T03:42:28.983Z,6.20
2018-12-23T03:44:58.072Z,3.00
2018-12-23T03:47:25.734Z,0.80
2018-12-23T03:49:53.581Z,6.20
2018-12-23T03:52:21.185Z,6.20
2018-12-23T03:54:49.077Z,6.80
2018-12-23T03:57:16.661Z,4.40
2018-12-23T03:59:44.308Z,7.40
2018-12-23T04:02:12.305Z,4.40
2018-12-23T04:04:39.984Z,4.40
2018-12-23T04:07:07.588Z,4.80
2018-12-23T04:09:35.223Z,2.60
2018-12-23T04:12:03.170Z,5.60
2018-12-23T04:14:30.809Z,4.80
2018-12-23T04:16:58.415Z,3.20
2018-12-23T04:19:26.015Z,4.20
2018-12-23T04:21:53.973Z,6.40
2018-12-23T04:24:21.583Z,6.00
2018-12-23T04:26:49.196Z,3.80
2018-12-23T04:29:16.841Z,5.80
2018-12-23T04:31:44.472Z,5.20
2018-12-23T04:34:12.126Z,5.80
2018-12-23T04:36:39.992Z,3.80
2018-12-23T04:39:07.895Z,5.60
2018-12-23T04:41:35.505Z,6.80
2018-12-23T04:44:03.170Z,3.80
2018-12-23T04:46:31.465Z,6.20
2018-12-23T04:48:59.451Z,3.40
2018-12-23T04:51:27.067Z,4.40
2018-12-23T04:53:54.686Z,6.00
2018-12-23T04:56:22.305Z,3.20
2018-12-23T04:58:50.215Z,5.40
2018-12-23T05:01:17.846Z,4.00
2018-12-23T05:03:46.202Z,5.60
2018-12-23T05:06:14.096Z,5.60
2018-12-23T05:08:42.048Z,8.60
2018-12-23T05:11:09.677Z,6.00
2018-12-23T05:13:37.310Z,6.00
2018-12-23T05:16:04.950Z,4.80
2018-12-23T05:18:32.906Z,5.20
2018-12-23T05:21:00.518Z,6.00
2018-12-23T05:23:28.593Z,5.20
2018-12-23T05:25:56.846Z,4.00
2018-12-23T05:28:25.216Z,4.80
2018-12-23T05:30:52.880Z,6.20
2018-12-23T05:33:20.476Z,3.40
2018-12-23T05:35:48.382Z,6.20
2018-12-23T05:38:16.013Z,4.40
2018-12-23T05:40:43.635Z,4.00
2018-12-23T05:43:11.294Z,6.80
2018-12-23T05:45:39.213Z,6.60
2018-12-23T05:48:07.423Z,6.40
2018-12-23T05:50:35.016Z,5.20
2018-12-23T05:53:02.617Z,3.20
2018-12-23T05:55:30.535Z,1.00
2018-12-23T05:57:58.166Z,4.00
2018-12-23T06:00:26.947Z,6.00
2018-12-23T06:02:54.866Z,3.20
2018-12-23T06:05:22.518Z,6.80
2018-12-23T06:07:50.147Z,4.40
2018-12-23T06:10:18.055Z,3.20
2018-12-23T06:12:45.759Z,6.00
2018-12-23T06:15:13.985Z,6.60
2018-12-23T06:17:41.609Z,4.00
2018-12-23T06:20:09.506Z,4.80
2018-12-23T06:22:37.138Z,6.40
2018-12-23T06:25:04.758Z,6.60
2018-12-23T06:27:32.394Z,7.00
2018-12-23T06:30:00.322Z,3.40
2018-12-23T06:32:28.023Z,7.00
2018-12-23T06:34:55.714Z,6.00
2018-12-23T06:37:23.346Z,6.40
2018-12-23T06:39:51.267Z,3.20
2018-12-23T06:42:18.884Z,4.00
2018-12-23T06:44:46.534Z,5.40
2018-12-23T06:47:14.206Z,3.60
2018-12-23T06:49:42.105Z,5.40
2018-12-23T06:52:09.728Z,4.80
2018-12-23T06:54:37.333Z,2.60
2018-12-23T06:57:04.949Z,7.00
2018-12-23T06:59:32.790Z,3.80
2018-12-23T07:02:00.414Z,6.40
2018-12-23T07:04:28.001Z,4.40
2018-12-23T07:06:55.608Z,3.80
2018-12-23T07:09:23.554Z,6.20
2018-12-23T07:11:52.221Z,6.00
2018-12-23T07:14:19.872Z,4.80
2018-12-23T07:16:47.567Z,4.00
2018-12-23T07:19:15.491Z,4.00
2018-12-23T07:21:43.637Z,5.80
2018-12-23T07:24:11.334Z,5.60
2018-12-23T07:26:38.957Z,1.00
2018-12-23T07:29:07.870Z,2.60
2018-12-23T07:31:35.476Z,3.40
2018-12-23T07:34:03.273Z,1.00
2018-12-23T07:36:30.890Z,3.20
2018-12-23T07:38:58.802Z,3.20
2018-12-23T07:41:26.407Z,4.80
2018-12-23T07:43:54.899Z,5.00
2018-12-23T07:46:22.474Z,5.60
2018-12-23T07:48:51.927Z,3.00
2018-12-23T07:51:19.505Z,5.60
2018-12-23T07:53:47.145Z,4.00
2018-12-23T07:56:14.822Z,3.80
2018-12-23T07:58:42.730Z,0.00
2018-12-23T08:01:10.965Z,4.60
2018-12-23T08:03:39.126Z,6.80
2018-12-23T08:06:07.828Z,3.00
2018-12-23T08:08:35.447Z,2.60
2018-12-23T08:11:04.706Z,6.00
2018-12-23T08:13:32.615Z,4.00
2018-12-23T08:16:05.120Z,4.00
2018-12-23T08:18:32.752Z,3.60
2018-12-23T08:21:01.731Z,6.00
2018-12-23T08:23:29.866Z,3.00
2018-12-23T08:25:57.487Z,3.40
2018-12-23T08:28:25.097Z,4.00
2018-12-23T08:30:52.707Z,5.20
2018-12-23T08:33:20.343Z,6.00
2018-12-23T08:35:51.677Z,4.00
2018-12-23T08:38:19.563Z,5.20
2018-12-23T08:40:48.105Z,6.20
2018-12-23T08:43:15.706Z,4.60
2018-12-23T08:45:43.261Z,4.00
2018-12-23T08:48:10.851Z,4.00
2018-12-23T08:50:40.341Z,3.40
2018-12-23T08:53:07.945Z,3.00
2018-12-23T08:55:35.546Z,4.40
2018-12-23T08:58:03.416Z,6.40
2018-12-23T09:00:31.230Z,3.20
2018-12-23T09:02:59.423Z,6.00
2018-12-23T09:05:27.293Z,3.60
2018-12-23T09:07:58.410Z,3.40
2018-12-23T09:10:26.941Z,3.00
2018-12-23T09:12:54.837Z,4.00
2018-12-23T09:15:22.435Z,3.00
2018-12-23T09:17:52.020Z,0.80
2018-12-23T09:20:19.897Z,2.60
2018-12-23T09:22:48.471Z,3.00
2018-12-23T09:25:16.078Z,3.00
2018-12-23T09:27:43.937Z,3.00
2018-12-23T09:30:11.566Z,3.00
2018-12-23T09:32:39.144Z,2.60
2018-12-23T09:35:07.078Z,2.20
2018-12-23T09:37:34.698Z,3.20
2018-12-23T09:40:02.327Z,3.00
2018-12-23T09:42:30.246Z,3.80
2018-12-23T09:44:57.833Z,3.00
2018-12-23T09:47:26.064Z,4.00
2018-12-23T09:49:53.949Z,3.00
2018-12-23T09:52:21.644Z,1.80
2018-12-23T09:54:49.332Z,2.20
2018-12-23T09:57:17.347Z,2.60
2018-12-23T09:59:44.965Z,2.60
2018-12-23T10:02:12.619Z,0.40
2018-12-23T10:04:40.482Z,2.60
2018-12-23T10:07:08.446Z,3.20
2018-12-23T10:09:36.108Z,1.00
2018-12-23T10:12:04.821Z,4.00
2018-12-23T10:14:32.464Z,3.00
2018-12-23T10:17:00.778Z,3.80
2018-12-23T10:19:29.645Z,3.00
2018-12-23T10:21:57.226Z,3.60
2018-12-23T10:24:24.854Z,1.00
2018-12-23T10:26:52.737Z,1.80
2018-12-23T10:29:20.309Z,1.00
2018-12-23T10:31:48.485Z,0.20
2018-12-23T10:34:17.247Z,2.60
2018-12-23T10:36:45.444Z,2.60
2018-12-23T10:39:13.081Z,2.60
2018-12-23T10:41:40.974Z,3.00
2018-12-23T10:44:09.253Z,3.60
2018-12-23T10:46:37.467Z,2.60
2018-12-23T10:49:05.444Z,2.60
2018-12-23T10:51:33.549Z,2.60
2018-12-23T10:54:01.912Z,3.80
2018-12-23T10:56:29.875Z,3.00
2018-12-23T10:58:58.450Z,3.00
2018-12-23T11:01:26.044Z,3.00
2018-12-23T11:03:54.274Z,1.00
2018-12-23T11:06:23.026Z,3.00
2018-12-23T11:08:51.715Z,1.40
2018-12-23T11:11:19.305Z,3.80
2018-12-23T11:13:48.078Z,2.60
2018-12-23T11:16:16.010Z,3.60
2018-12-23T11:18:44.131Z,3.00
2018-12-23T11:21:12.467Z,3.00
2018-12-23T11:23:40.367Z,1.80
2018-12-23T11:26:08.055Z,3.00
2018-12-23T11:28:36.410Z,1.00
2018-12-23T11:31:05.142Z,5.20
2018-12-23T11:33:32.726Z,3.00
2018-12-23T11:36:01.259Z,3.60
2018-12-23T11:38:35.457Z,4.40
2018-12-23T11:40:58.822Z,6.00
2018-12-23T11:43:26.448Z,3.80
2018-12-23T11:45:54.354Z,3.80
2018-12-23T11:48:23.382Z,1.40
2018-12-23T11:50:52.332Z,3.40
2018-12-23T11:53:20.299Z,2.60
2018-12-23T11:55:47.938Z,6.00
2018-12-23T11:58:15.597Z,0.20
2018-12-23T12:00:43.494Z,3.60
2018-12-23T12:03:12.709Z,3.40
2018-12-23T12:05:41.014Z,4.00
2018-12-23T12:08:09.612Z,2.20
2018-12-23T12:10:37.238Z,4.00
2018-12-23T12:13:06.011Z,3.40
2018-12-23T12:15:34.031Z,5.20
2018-12-23T12:18:02.193Z,0.60
2018-12-23T12:20:29.829Z,4.00
2018-12-23T12:22:59.253Z,0.00
2018-12-23T12:25:26.874Z,4.00
2018-12-23T12:27:55.181Z,4.80
2018-12-23T12:30:23.256Z,3.00
2018-12-23T12:32:51.330Z,3.00
2018-12-23T12:35:20.122Z,1.00
2018-12-23T12:37:48.038Z,1.40
2018-12-23T12:40:16.250Z,1.00
2018-12-23T12:42:44.005Z,1.40
2018-12-23T12:45:12.909Z,3.40
2018-12-23T12:47:40.567Z,1.00
2018-12-23T12:50:08.202Z,3.00
2018-12-23T12:52:36.687Z,1.80
2018-12-23T12:55:04.316Z,3.00
2018-12-23T12:57:32.779Z,2.60
2018-12-23T13:00:01.557Z,1.40
2018-12-23T13:02:29.231Z,3.00
2018-12-23T13:04:56.898Z,3.00
2018-12-23T13:07:24.823Z,1.00
2018-12-23T13:09:52.512Z,3.20
2018-12-23T13:12:20.287Z,1.00
2018-12-23T13:14:51.735Z,1.40
2018-12-23T13:17:20.487Z,2.60
2018-12-23T13:19:49.398Z,0.80
2018-12-23T13:22:18.269Z,3.00
2018-12-23T13:24:50.441Z,4.00
2018-12-23T13:27:18.874Z,3.00
2018-12-23T13:29:46.765Z,3.20
2018-12-23T13:32:14.349Z,3.40
2018-12-23T13:34:41.980Z,2.60
2018-12-23T13:37:10.626Z,3.60
2018-12-23T13:39:38.225Z,2.20
2018-12-23T13:42:06.286Z,1.00
2018-12-23T13:44:35.116Z,3.00
2018-12-23T13:47:02.807Z,3.40
2018-12-23T13:49:31.287Z,3.00
2018-12-23T13:52:00.408Z,1.00
2018-12-23T13:54:30.305Z,2.20
2018-12-23T13:57:01.116Z,1.00
2018-12-23T13:59:28.744Z,3.00
2018-12-23T14:01:56.968Z,4.00
2018-12-23T14:04:25.577Z,5.20
2018-12-23T14:06:53.162Z,3.00
2018-12-23T14:09:21.672Z,0.00
2018-12-23T14:11:49.373Z,3.40
2018-12-23T14:14:19.248Z,3.00
2018-12-23T14:16:47.368Z,3.00
2018-12-23T14:19:16.644Z,0.20
2018-12-23T14:21:51.603Z,3.00
2018-12-23T14:24:19.512Z,1.00
2018-12-23T14:26:47.114Z,4.00
2018-12-23T14:29:14.762Z,3.00
2018-12-23T14:31:42.645Z,3.00
2018-12-23T14:34:10.303Z,1.40
2018-12-23T14:36:37.933Z,3.60
2018-12-23T14:39:05.911Z,3.60
2018-12-23T14:41:34.244Z,3.40
2018-12-23T14:44:01.913Z,3.80
2018-12-23T14:46:29.838Z,1.00
2018-12-23T14:48:57.418Z,2.60
2018-12-23T14:51:25.083Z,3.00
2018-12-23T14:53:52.945Z,2.20
2018-12-23T14:56:20.725Z,3.00
2018-12-23T14:58:48.362Z,1.00
2018-12-23T15:01:17.490Z,0.60
2018-12-23T15:03:45.738Z,2.60
2018-12-23T15:06:13.466Z,3.40
2018-12-23T15:08:41.393Z,3.00
2018-12-23T15:11:09.729Z,3.00
2018-12-23T15:13:39.924Z,0.00
2018-12-23T15:16:07.827Z,1.40
2018-12-23T15:18:35.415Z,3.00
2018-12-23T15:21:04.080Z,3.00
2018-12-23T15:23:32.713Z,3.00
2018-12-23T15:26:01.678Z,3.20
2018-12-23T15:28:29.321Z,3.00
2018-12-23T15:30:57.277Z,3.80
2018-12-23T15:33:24.922Z,3.00
2018-12-23T15:35:52.546Z,2.60
2018-12-23T15:38:21.267Z,3.40
2018-12-23T15:40:49.747Z,5.00
2018-12-23T15:43:17.994Z,6.40
2018-12-23T15:45:47.329Z,3.40
2018-12-23T15:48:16.379Z,3.60
2018-12-23T15:50:44.938Z,3.00
2018-12-23T15:53:12.865Z,3.00
2018-12-23T15:55:42.184Z,3.00
2018-12-23T15:58:09.961Z,2.60
2018-12-23T16:00:37.933Z,2.60
2018-12-23T16:03:06.240Z,3.00
2018-12-23T16:05:35.007Z,3.00
2018-12-23T16:08:04.942Z,2.60
2018-12-23T16:10:33.717Z,2.60
2018-12-23T16:13:01.675Z,1.00
2018-12-23T16:15:30.287Z,2.60
2018-12-23T16:17:57.950Z,3.00
2018-12-23T16:20:25.622Z,3.80
2018-12-23T16:22:54.113Z,3.00
2018-12-23T16:25:21.833Z,3.00
2018-12-23T16:27:49.695Z,3.20
2018-12-23T16:30:17.598Z,3.60
2018-12-23T16:32:45.235Z,3.40
2018-12-23T16:35:12.939Z,3.40
2018-12-23T16:37:40.886Z,2.60
2018-12-23T16:40:08.508Z,1.00
2018-12-23T16:42:36.113Z,3.20
2018-12-23T16:45:04.773Z,1.00
2018-12-23T16:47:32.402Z,4.40
2018-12-23T16:50:00.042Z,6.00
2018-12-23T16:52:28.031Z,4.00
2018-12-23T16:54:56.715Z,5.60
2018-12-23T16:57:24.333Z,6.40
2018-12-23T16:59:52.369Z,5.60
2018-12-23T17:02:22.090Z,6.20
2018-12-23T17:04:49.705Z,7.00
2018-12-23T17:07:18.166Z,4.00
2018-12-23T17:09:45.855Z,6.00
2018-12-23T17:12:13.757Z,6.80
2018-12-23T17:14:41.326Z,6.80
2018-12-23T17:17:09.762Z,9.20
2018-12-23T17:19:37.662Z,12.40
2018-12-23T17:22:05.437Z,12.40
2018-12-23T17:24:33.818Z,12.60
2018-12-23T17:27:01.806Z,6.00
2018-12-23T17:29:29.442Z,8.80
2018-12-23T17:31:57.085Z,9.00
2018-12-23T17:34:25.277Z,7.40
2018-12-23T17:36:52.895Z,8.40
2018-12-23T17:39:20.490Z,8.20
2018-12-23T17:41:48.390Z,6.00
2018-12-23T17:44:16.795Z,6.00
2018-12-23T17:46:44.382Z,4.00
2018-12-23T17:49:12.375Z,6.40
2018-12-23T17:51:40.863Z,5.20
2018-12-23T17:54:09.157Z,3.00
2018-12-23T17:56:38.789Z,4.40
2018-12-23T17:59:06.550Z,5.20
2018-12-23T18:01:34.189Z,4.00
2018-12-23T18:04:03.499Z,5.60
2018-12-23T18:06:32.507Z,6.00
2018-12-23T18:09:00.658Z,7.00
2018-12-23T18:11:28.520Z,4.80
2018-12-23T18:13:56.792Z,6.00
2018-12-23T18:16:24.552Z,9.20
2018-12-23T18:18:52.430Z,6.60
2018-12-23T18:21:20.617Z,6.80
2018-12-23T18:23:50.029Z,7.00
2018-12-23T18:26:17.934Z,6.80
2018-12-23T18:28:46.503Z,9.80
2018-12-23T18:31:14.110Z,9.00
2018-12-23T18:33:42.253Z,10.00
2018-12-23T18:36:09.858Z,12.80
2018-12-23T18:38:37.551Z,9.00
2018-12-23T18:41:05.802Z,9.00
2018-12-23T18:43:33.551Z,11.20
2018-12-23T18:46:01.312Z,9.00
2018-12-23T18:48:30.168Z,9.00
2018-12-23T18:50:57.876Z,7.40
2018-12-23T18:53:25.538Z,8.80
2018-12-23T18:55:53.477Z,9.20
2018-12-23T18:58:21.800Z,6.80
2018-12-23T19:00:49.426Z,6.00
2018-12-23T19:03:19.544Z,10.40
2018-12-23T19:05:49.086Z,9.00
2018-12-23T19:08:16.798Z,7.00
2018-12-23T19:10:44.710Z,7.00
2018-12-23T19:13:13.967Z,6.00
2018-12-23T19:15:42.584Z,7.40
2018-12-23T19:18:11.399Z,6.00
2018-12-23T19:20:40.678Z,4.40
2018-12-23T19:23:08.364Z,4.00
2018-12-23T19:25:36.417Z,6.40
2018-12-23T19:28:04.283Z,6.00
2018-12-23T19:30:31.900Z,5.60
2018-12-23T19:33:03.456Z,5.20
2018-12-23T19:35:32.034Z,6.40
2018-12-23T19:37:59.654Z,6.60
2018-12-23T19:40:27.837Z,4.40
2018-12-23T19:42:55.481Z,6.00
2018-12-23T19:45:23.702Z,3.20
2018-12-23T19:47:52.093Z,4.80
2018-12-23T19:50:20.738Z,5.60
2018-12-23T19:52:48.426Z,3.60
2018-12-23T19:55:16.536Z,5.20
2018-12-23T19:57:44.207Z,5.60
2018-12-23T20:00:11.826Z,4.00
2018-12-23T20:02:39.864Z,3.00
2018-12-23T20:05:08.266Z,3.20
2018-12-23T20:07:35.887Z,0.00
2018-12-23T20:10:05.745Z,4.00
2018-12-23T20:12:33.382Z,3.00
2018-12-23T20:15:01.816Z,1.80
2018-12-23T20:17:30.573Z,2.20
2018-12-23T20:19:59.333Z,1.00
2018-12-23T20:22:26.925Z,0.40
2018-12-23T20:24:55.995Z,0.80
2018-12-23T20:27:23.606Z,3.00
2018-12-23T20:29:52.213Z,1.00
2018-12-23T20:32:21.700Z,0.00
2018-12-23T20:34:50.106Z,2.60
2018-12-23T20:37:19.330Z,3.00
2018-12-23T20:39:47.326Z,2.60
2018-12-23T20:42:15.606Z,3.80
2018-12-23T20:44:44.683Z,3.00
2018-12-23T20:47:13.542Z,1.40
2018-12-23T20:49:41.970Z,1.80
2018-12-23T20:52:09.639Z,4.00
2018-12-23T20:54:38.774Z,3.00
2018-12-23T20:57:07.452Z,1.00
2018-12-23T20:59:35.873Z,3.80
2018-12-23T21:02:03.883Z,2.20
2018-12-23T21:04:31.529Z,3.40
2018-12-23T21:06:59.178Z,3.00
2018-12-23T21:09:27.199Z,3.20
2018-12-23T21:11:54.924Z,2.60
2018-12-23T21:14:22.508Z,3.20
2018-12-23T21:16:50.587Z,2.20
2018-12-23T21:19:19.039Z,3.00
2018-12-23T21:21:46.657Z,1.00
2018-12-23T21:24:14.614Z,0.60
2018-12-23T21:26:44.930Z,1.40
2018-12-23T21:29:13.511Z,1.00
2018-12-23T21:31:42.010Z,3.60
2018-12-23T21:34:46.728Z,3.20
2018-12-23T21:37:33.182Z,1.00
2018-12-23T21:45:44.243Z,2.60
2018-12-23T21:48:30.682Z,1.00
2018-12-23T21:53:55.101Z,2.60
2018-12-23T21:56:25.610Z,2.60
2018-12-23T21:59:12.152Z,1.00
2018-12-23T22:01:58.624Z,0.00
2018-12-23T22:04:45.141Z,0.00
2018-12-23T22:07:12.875Z,1.00
2018-12-23T22:09:59.394Z,1.00
2018-12-23T22:15:32.367Z,0.20
2018-12-23T22:18:18.815Z,0.00
2018-12-23T22:21:05.367Z,1.00
2018-12-23T22:23:33.185Z,0.00
2018-12-23T22:26:20.173Z,0.40
2018-12-23T22:28:49.891Z,1.20
2018-12-23T22:31:36.420Z,0.00
2018-12-23T22:34:22.901Z,1.00
2018-12-23T22:37:09.424Z,0.80
2018-12-23T22:39:37.157Z,1.00
2018-12-23T22:42:16.748Z,2.60
2018-12-23T22:44:53.648Z,0.40
2018-12-23T22:50:08.130Z,1.00
2018-12-23T22:52:47.873Z,0.80
2018-12-23T22:55:36.734Z,3.00
2018-12-23T22:57:53.476Z,1.80
2018-12-23T23:00:39.937Z,0.60
2018-12-23T23:05:59.933Z,1.80
2018-12-23T23:08:46.402Z,0.80
2018-12-23T23:14:38.080Z,1.00
2018-12-23T23:17:24.612Z,0.80
2018-12-23T23:20:11.047Z,1.40
2018-12-23T23:23:12.729Z,2.20
2018-12-23T23:25:48.160Z,1.40
2018-12-23T23:28:34.658Z,1.00
2018-12-23T23:31:21.098Z,0.80
2018-12-23T23:34:07.627Z,1.00
2018-12-23T23:39:27.956Z,0.60
2018-12-23T23:42:14.433Z,1.00
2018-12-23T23:45:00.998Z,1.80
2018-12-23T23:50:33.911Z,2.60
2018-12-23T23:58:02.100Z,3.80
